createdAt,value
2018-12-04T00:00:27.740Z,6.90
2018-12-04T00:02:55.236Z,6.90
2018-12-04T00:05:22.692Z,6.80
2018-12-04T00:07:53.411Z,6.90
2018-12-04T00:10:20.874Z,6.90
2018-12-04T00:12:48.316Z,6.90
2018-12-04T00:15:15.805Z,6.90
2018-12-04T00:17:43.258Z,6.90
2018-12-04T00:20:10.735Z,6.90
2018-12-04T00:22:38.194Z,7.00
2018-12-04T00:25:05.705Z,7.10
2018-12-04T00:27:33.190Z,7.10
2018-12-04T00:30:00.628Z,7.10
2018-12-04T00:32:28.205Z,7.10
2018-12-04T00:34:55.687Z,7.10
2018-12-04T00:37:23.175Z,7.10
2018-12-04T00:39:50.697Z,7.10
2018-12-04T00:42:18.156Z,7.10
2018-12-04T00:44:45.643Z,7.10
2018-12-04T00:47:13.116Z,7.20
2018-12-04T00:49:40.570Z,7.10
2018-12-04T00:52:08.023Z,7.10
2018-12-04T00:54:35.468Z,7.10
2018-12-04T00:57:02.957Z,7.10
2018-12-04T00:59:30.502Z,7.10
2018-12-04T01:01:57.970Z,7.10
2018-12-04T01:04:25.449Z,7.00
2018-12-04T01:06:52.929Z,7.00
2018-12-04T01:09:20.401Z,6.90
2018-12-04T01:11:47.896Z,6.90
2018-12-04T01:14:15.350Z,6.80
2018-12-04T01:16:42.850Z,6.80
2018-12-04T01:19:10.326Z,6.70
2018-12-04T01:21:37.826Z,6.60
2018-12-04T01:24:05.324Z,6.50
2018-12-04T01:26:32.806Z,6.40
2018-12-04T01:29:00.308Z,6.20
2018-12-04T01:31:27.761Z,6.10
2018-12-04T01:33:55.247Z,6.00
2018-12-04T01:36:22.837Z,5.90
2018-12-04T01:38:50.296Z,5.80
2018-12-04T01:41:17.797Z,5.70
2018-12-04T01:43:45.277Z,5.40
2018-12-04T01:46:12.738Z,5.10
2018-12-04T01:48:40.203Z,4.90
2018-12-04T01:51:07.690Z,4.60
2018-12-04T01:53:35.181Z,4.40
2018-12-04T01:56:02.688Z,4.20
2018-12-04T01:58:30.156Z,4.10
2018-12-04T02:00:57.634Z,4.10
2018-12-04T02:03:25.098Z,4.10
2018-12-04T02:05:52.578Z,4.10
2018-12-04T02:08:20.038Z,4.10
2018-12-04T02:10:47.558Z,4.10
2018-12-04T02:13:15.034Z,4.10
2018-12-04T02:15:42.512Z,4.20
2018-12-04T02:18:09.994Z,4.00
2018-12-04T02:20:37.474Z,4.00
2018-12-04T02:23:04.953Z,3.90
2018-12-04T02:25:32.421Z,3.80
2018-12-04T02:27:59.870Z,3.80
2018-12-04T02:30:27.326Z,3.80
2018-12-04T02:32:54.782Z,3.90
2018-12-04T02:35:22.224Z,3.90
2018-12-04T02:37:49.694Z,3.90
2018-12-04T02:40:17.140Z,3.80
2018-12-04T02:42:44.590Z,3.80
2018-12-04T02:45:12.092Z,3.80
2018-12-04T02:47:39.535Z,3.80
2018-12-04T02:50:07.104Z,3.80
2018-12-04T02:52:34.636Z,3.80
2018-12-04T02:55:02.198Z,3.80
2018-12-04T02:57:29.801Z,3.80
2018-12-04T02:59:57.261Z,3.80
2018-12-04T03:02:24.731Z,3.80
2018-12-04T03:04:52.179Z,3.80
2018-12-04T03:07:19.650Z,3.80
2018-12-04T03:09:47.139Z,3.80
2018-12-04T03:12:14.600Z,3.70
2018-12-04T03:14:42.165Z,3.70
2018-12-04T03:17:09.619Z,3.80
2018-12-04T03:19:37.075Z,3.70
2018-12-04T03:22:04.523Z,3.80
2018-12-04T03:24:32.004Z,3.70
2018-12-04T03:26:59.451Z,3.80
2018-12-04T03:29:26.938Z,3.70
2018-12-04T03:31:54.422Z,3.70
2018-12-04T03:34:21.973Z,3.70
2018-12-04T03:36:49.425Z,3.70
2018-12-04T03:39:16.890Z,3.70
2018-12-04T03:41:44.395Z,3.70
2018-12-04T03:44:11.901Z,3.70
2018-12-04T03:46:39.380Z,3.70
2018-12-04T03:49:06.844Z,3.70
2018-12-04T03:51:34.370Z,3.70
2018-12-04T03:54:01.834Z,3.70
2018-12-04T03:56:29.323Z,3.60
2018-12-04T03:58:56.802Z,3.70
2018-12-04T04:01:24.309Z,3.60
2018-12-04T04:03:51.762Z,3.60
2018-12-04T04:06:19.234Z,3.60
2018-12-04T04:08:46.683Z,3.60
2018-12-04T04:11:14.121Z,3.60
2018-12-04T04:13:41.593Z,3.60
2018-12-04T04:16:09.075Z,3.60
2018-12-04T04:18:36.562Z,3.60
2018-12-04T04:21:04.059Z,3.60
2018-12-04T04:23:31.512Z,3.60
2018-12-04T04:25:58.958Z,3.60
2018-12-04T04:28:26.459Z,3.60
2018-12-04T04:30:53.929Z,3.60
2018-12-04T04:33:21.438Z,3.50
2018-12-04T04:35:48.905Z,3.40
2018-12-04T04:38:16.353Z,3.40
2018-12-04T04:40:43.811Z,3.40
2018-12-04T04:43:11.274Z,3.40
2018-12-04T04:45:38.727Z,3.40
2018-12-04T04:48:06.201Z,3.40
2018-12-04T04:50:33.655Z,3.30
2018-12-04T04:53:01.126Z,3.30
2018-12-04T04:55:28.600Z,3.30
2018-12-04T04:57:56.146Z,3.30
2018-12-04T05:00:23.593Z,3.20
2018-12-04T05:02:51.058Z,3.20
2018-12-04T05:05:18.537Z,3.20
2018-12-04T05:07:46.002Z,3.20
2018-12-04T05:10:13.470Z,3.20
2018-12-04T05:12:40.961Z,3.20
2018-12-04T05:15:08.414Z,3.20
2018-12-04T05:17:35.922Z,3.20
2018-12-04T05:20:04.899Z,3.20
2018-12-04T05:22:32.350Z,3.20
2018-12-04T05:24:59.807Z,3.30
2018-12-04T05:27:27.251Z,3.30
2018-12-04T05:29:54.807Z,3.30
2018-12-04T05:32:22.302Z,3.30
2018-12-04T05:34:49.742Z,3.20
2018-12-04T05:37:17.235Z,3.20
2018-12-04T05:39:44.707Z,3.20
2018-12-04T05:42:12.154Z,3.20
2018-12-04T05:44:39.610Z,3.20
2018-12-04T05:47:07.113Z,3.10
2018-12-04T05:49:34.831Z,3.00
2018-12-04T05:52:02.276Z,3.00
2018-12-04T05:54:29.728Z,2.90
2018-12-04T05:56:57.174Z,2.90
2018-12-04T05:59:24.625Z,2.90
2018-12-04T06:01:52.065Z,2.90
2018-12-04T06:04:19.536Z,2.80
2018-12-04T06:06:46.990Z,2.80
2018-12-04T06:09:14.469Z,2.80
2018-12-04T06:11:41.979Z,2.80
2018-12-04T06:14:09.454Z,2.80
2018-12-04T06:16:36.917Z,2.80
2018-12-04T06:19:04.410Z,2.70
2018-12-04T06:21:32.023Z,2.70
2018-12-04T06:23:59.511Z,2.70
2018-12-04T06:26:26.974Z,2.70
2018-12-04T06:28:54.438Z,2.70
2018-12-04T06:31:21.927Z,2.70
2018-12-04T06:33:49.398Z,2.70
2018-12-04T06:36:16.876Z,2.80
2018-12-04T06:38:44.373Z,2.80
2018-12-04T06:41:11.834Z,2.80
2018-12-04T06:43:39.325Z,2.80
2018-12-04T06:46:07.422Z,2.80
2018-12-04T06:48:34.876Z,2.80
2018-12-04T06:51:02.329Z,2.90
2018-12-04T06:53:29.815Z,2.90
2018-12-04T06:55:57.268Z,2.90
2018-12-04T06:58:25.518Z,2.90
2018-12-04T07:00:52.961Z,2.90
2018-12-04T07:03:21.512Z,3.00
2018-12-04T07:05:51.015Z,3.00
2018-12-04T07:08:18.462Z,3.00
2018-12-04T07:10:45.959Z,3.00
2018-12-04T07:13:13.407Z,3.00
2018-12-04T07:15:40.874Z,3.00
2018-12-04T07:18:08.350Z,3.00
2018-12-04T07:20:35.792Z,3.00
2018-12-04T07:23:03.262Z,3.00
2018-12-04T07:25:30.718Z,3.00
2018-12-04T07:27:58.208Z,3.00
2018-12-04T07:30:25.674Z,3.00
2018-12-04T07:32:53.166Z,3.10
2018-12-04T07:35:20.623Z,3.00
2018-12-04T07:37:48.117Z,3.00
2018-12-04T07:40:15.572Z,3.00
2018-12-04T07:42:43.043Z,3.00
2018-12-04T07:45:10.529Z,3.00
2018-12-04T07:47:38.025Z,3.00
2018-12-04T07:50:05.511Z,3.00
2018-12-04T07:52:32.974Z,3.00
2018-12-04T07:55:00.441Z,3.00
2018-12-04T07:57:27.923Z,3.00
2018-12-04T07:59:55.385Z,3.00
2018-12-04T08:02:22.866Z,3.00
2018-12-04T08:04:50.364Z,3.00
2018-12-04T08:07:17.795Z,3.00
2018-12-04T08:09:45.266Z,3.00
2018-12-04T08:12:12.748Z,3.00
2018-12-04T08:14:40.223Z,3.00
2018-12-04T08:17:07.693Z,3.00
2018-12-04T08:19:35.208Z,3.10
2018-12-04T08:22:02.676Z,3.10
2018-12-04T08:24:30.180Z,3.10
2018-12-04T08:26:57.697Z,3.10
2018-12-04T08:29:25.173Z,3.10
2018-12-04T08:31:52.621Z,3.10
2018-12-04T08:34:20.065Z,3.10
2018-12-04T08:36:47.530Z,3.10
2018-12-04T08:39:14.998Z,3.10
2018-12-04T08:41:42.482Z,3.20
2018-12-04T08:44:10.095Z,3.20
2018-12-04T08:46:37.558Z,3.20
2018-12-04T08:49:05.085Z,3.20
2018-12-04T08:51:32.556Z,3.20
2018-12-04T08:54:00.014Z,3.30
2018-12-04T08:56:27.478Z,3.30
2018-12-04T08:58:54.929Z,3.30
2018-12-04T09:01:22.399Z,3.40
2018-12-04T09:03:49.855Z,3.40
2018-12-04T09:08:51.573Z,3.50
2018-12-04T09:11:19.099Z,3.50
2018-12-04T09:13:46.589Z,3.50
2018-12-04T09:16:15.054Z,3.40
2018-12-04T09:18:42.508Z,3.50
2018-12-04T09:21:10.079Z,3.40
2018-12-04T09:23:37.591Z,3.40
2018-12-04T09:26:06.062Z,3.40
2018-12-04T09:28:33.614Z,3.30
2018-12-04T09:31:01.167Z,3.30
2018-12-04T09:33:28.654Z,3.40
2018-12-04T09:35:56.130Z,3.40
2018-12-04T09:38:23.577Z,3.40
2018-12-04T09:40:51.057Z,3.40
2018-12-04T09:43:18.510Z,3.40
2018-12-04T09:45:46.014Z,3.50
2018-12-04T09:48:13.689Z,3.60
2018-12-04T09:50:41.211Z,3.70
2018-12-04T09:53:08.691Z,3.60
2018-12-04T09:55:36.177Z,3.70
2018-12-04T09:58:03.666Z,3.60
2018-12-04T10:00:31.221Z,3.50
2018-12-04T10:02:58.676Z,3.50
2018-12-04T10:05:26.153Z,3.50
2018-12-04T10:07:53.638Z,3.50
2018-12-04T10:10:21.104Z,3.50
2018-12-04T10:12:48.608Z,3.60
2018-12-04T10:15:16.154Z,3.60
2018-12-04T10:17:43.675Z,3.60
2018-12-04T10:20:11.159Z,3.60
2018-12-04T10:22:38.628Z,3.50
2018-12-04T10:25:06.110Z,3.60
2018-12-04T10:27:33.574Z,3.90
2018-12-04T10:30:01.034Z,3.90
2018-12-04T10:32:28.523Z,3.90
2018-12-04T10:34:55.982Z,3.90
2018-12-04T10:37:23.416Z,3.80
2018-12-04T10:39:50.889Z,3.70
2018-12-04T10:42:18.365Z,3.70
2018-12-04T10:44:45.836Z,3.60
2018-12-04T10:47:13.291Z,3.70
2018-12-04T10:49:40.883Z,3.80
2018-12-04T10:52:08.359Z,3.80
2018-12-04T10:54:35.851Z,3.70
2018-12-04T10:57:03.326Z,3.60
2018-12-04T10:59:30.823Z,3.60
2018-12-04T11:02:03.863Z,3.60
2018-12-04T11:04:31.347Z,3.60
2018-12-04T11:06:58.824Z,3.60
2018-12-04T11:09:26.278Z,3.50
2018-12-04T11:11:53.785Z,3.50
2018-12-04T11:14:21.213Z,3.40
2018-12-04T11:16:48.684Z,3.40
2018-12-04T11:19:16.173Z,3.40
2018-12-04T11:21:43.652Z,3.50
2018-12-04T11:24:11.210Z,3.50
2018-12-04T11:26:38.855Z,3.60
2018-12-04T11:29:06.296Z,3.70
2018-12-04T11:31:33.759Z,3.70
2018-12-04T11:34:01.309Z,3.70
2018-12-04T11:36:28.773Z,3.80
2018-12-04T11:38:56.245Z,4.00
2018-12-04T11:41:23.752Z,4.10
2018-12-04T11:43:51.453Z,4.30
2018-12-04T11:46:18.917Z,4.40
2018-12-04T11:48:46.396Z,4.30
2018-12-04T11:51:13.880Z,4.20
2018-12-04T11:53:41.379Z,4.00
2018-12-04T11:56:08.851Z,4.00
2018-12-04T11:58:36.316Z,4.00
2018-12-04T12:01:04.947Z,3.90
2018-12-04T12:03:32.411Z,3.80
2018-12-04T12:05:59.888Z,3.60
2018-12-04T12:08:27.622Z,3.60
2018-12-04T12:10:55.094Z,3.60
2018-12-04T12:13:22.573Z,3.70
2018-12-04T12:15:50.057Z,3.80
2018-12-04T12:18:17.535Z,3.90
2018-12-04T12:20:44.993Z,4.00
2018-12-04T12:23:12.464Z,4.00
2018-12-04T12:25:40.108Z,4.00
2018-12-04T12:28:07.777Z,4.10
2018-12-04T12:30:35.911Z,4.10
2018-12-04T12:33:03.611Z,4.20
2018-12-04T12:35:31.082Z,4.30
2018-12-04T12:37:58.598Z,4.40
2018-12-04T12:40:26.057Z,4.60
2018-12-04T12:42:53.515Z,5.00
2018-12-04T12:45:21.007Z,5.30
2018-12-04T12:47:49.062Z,5.40
2018-12-04T12:50:16.535Z,5.60
2018-12-04T12:52:44.535Z,5.60
2018-12-04T12:55:12.130Z,5.60
2018-12-04T12:57:40.610Z,5.40
2018-12-04T13:00:09.096Z,5.40
2018-12-04T13:02:36.597Z,5.30
2018-12-04T13:05:04.483Z,5.20
2018-12-04T13:07:32.138Z,4.90
2018-12-04T13:10:00.480Z,4.80
2018-12-04T13:12:28.036Z,4.70
2018-12-04T13:14:55.508Z,4.70
2018-12-04T13:17:23.115Z,4.60
2018-12-04T13:19:50.657Z,4.60
2018-12-04T13:22:18.244Z,4.50
2018-12-04T13:24:45.739Z,4.60
2018-12-04T13:27:13.329Z,4.60
2018-12-04T13:29:41.123Z,4.50
2018-12-04T13:32:08.587Z,4.50
2018-12-04T13:34:36.056Z,4.30
2018-12-04T13:37:03.646Z,4.20
2018-12-04T13:39:31.224Z,4.00
2018-12-04T13:41:58.683Z,3.90
2018-12-04T13:44:26.152Z,3.70
2018-12-04T13:46:53.644Z,3.50
2018-12-04T13:49:21.192Z,3.40
2018-12-04T13:51:48.798Z,3.30
2018-12-04T13:54:16.406Z,3.30
2018-12-04T13:56:43.885Z,3.20
2018-12-04T13:59:11.410Z,3.10
2018-12-04T14:01:38.997Z,3.00
2018-12-04T14:04:06.587Z,3.00
2018-12-04T14:06:34.144Z,3.00
2018-12-04T14:09:01.652Z,2.90
2018-12-04T14:11:29.106Z,2.80
2018-12-04T14:13:56.832Z,2.70
2018-12-04T14:16:24.292Z,2.60
2018-12-04T14:18:51.788Z,2.50
2018-12-04T14:21:20.073Z,2.50
2018-12-04T14:23:47.605Z,2.40
2018-12-04T14:26:15.173Z,2.30
2018-12-04T14:28:42.627Z,2.30
2018-12-04T14:31:10.162Z,2.30
2018-12-04T14:33:37.715Z,2.20
2018-12-04T14:36:05.310Z,2.10
2018-12-04T14:38:32.785Z,2.00
2018-12-04T14:41:00.438Z,1.90
2018-12-04T14:43:27.997Z,1.80
2018-12-04T14:45:55.735Z,1.80
2018-12-04T14:48:23.380Z,1.80
2018-12-04T14:50:50.855Z,1.80
2018-12-04T14:53:18.398Z,1.80
2018-12-04T14:55:45.902Z,1.70
2018-12-04T14:58:13.368Z,1.70
2018-12-04T15:00:40.929Z,1.60
2018-12-04T15:03:08.495Z,1.50
2018-12-04T15:05:36.092Z,1.50
2018-12-04T15:08:03.794Z,1.50
2018-12-04T15:10:31.385Z,1.40
2018-12-04T15:12:58.837Z,1.30
2018-12-04T15:15:26.340Z,1.20
2018-12-04T15:17:53.803Z,1.20
2018-12-04T15:20:21.292Z,1.20
2018-12-04T15:22:48.800Z,1.20
2018-12-04T15:25:16.600Z,1.20
2018-12-04T15:27:44.191Z,1.20
2018-12-04T15:30:11.785Z,1.00
2018-12-04T15:32:39.357Z,0.90
2018-12-04T15:35:06.924Z,0.80
2018-12-04T15:37:34.481Z,0.70
2018-12-04T15:40:02.092Z,0.60
2018-12-04T15:42:29.655Z,0.60
2018-12-04T15:44:57.198Z,0.50
2018-12-04T15:47:24.672Z,0.30
2018-12-04T15:49:52.260Z,0.20
2018-12-04T15:52:19.807Z,0.20
2018-12-04T15:54:47.344Z,0.20
2018-12-04T15:57:14.901Z,0.20
2018-12-04T15:59:42.395Z,0.10
2018-12-04T16:02:09.882Z,0.30
2018-12-04T16:04:37.398Z,0.30
2018-12-04T16:07:04.879Z,0.20
2018-12-04T16:09:32.826Z,0.10
2018-12-04T16:12:00.335Z,0.10
2018-12-04T16:14:27.817Z,0.10
2018-12-04T16:16:55.288Z,0.10
2018-12-04T16:19:22.761Z,0.10
2018-12-04T16:21:50.228Z,0.20
2018-12-04T16:24:17.672Z,0.00
2018-12-04T16:26:45.154Z,-0.10
2018-12-04T16:29:12.630Z,-0.20
2018-12-04T16:31:40.082Z,-0.20
2018-12-04T16:34:07.571Z,-0.30
2018-12-04T16:36:35.065Z,-0.30
2018-12-04T16:39:02.597Z,-0.40
2018-12-04T16:41:30.063Z,-0.50
2018-12-04T16:43:57.520Z,-0.50
2018-12-04T16:46:25.024Z,-0.60
2018-12-04T16:48:52.524Z,-0.60
2018-12-04T16:51:19.994Z,-0.70
2018-12-04T16:53:47.454Z,-0.80
2018-12-04T16:56:14.914Z,-0.80
2018-12-04T16:58:42.378Z,-0.90
2018-12-04T17:01:09.872Z,-0.90
2018-12-04T17:03:37.354Z,-0.90
2018-12-04T17:06:05.027Z,-0.80
2018-12-04T17:08:32.709Z,-0.90
2018-12-04T17:11:00.192Z,-0.90
2018-12-04T17:13:27.659Z,-0.90
2018-12-04T17:15:55.738Z,-0.70
2018-12-04T17:18:23.189Z,-0.50
2018-12-04T17:20:50.921Z,-0.50
2018-12-04T17:23:18.480Z,-0.60
2018-12-04T17:25:45.985Z,-0.60
2018-12-04T17:28:14.485Z,-0.70
2018-12-04T17:30:42.119Z,-0.70
2018-12-04T17:33:09.800Z,-0.80
2018-12-04T17:35:37.307Z,-0.80
2018-12-04T17:38:04.758Z,-0.60
2018-12-04T17:40:32.299Z,-0.60
2018-12-04T17:42:59.789Z,-0.30
2018-12-04T17:45:27.279Z,-0.30
2018-12-04T17:47:54.741Z,-0.50
2018-12-04T17:50:22.215Z,-0.50
2018-12-04T17:52:50.024Z,-0.50
2018-12-04T17:55:17.500Z,-0.60
2018-12-04T17:57:44.956Z,-0.60
2018-12-04T18:00:13.741Z,-0.50
2018-12-04T18:02:41.682Z,-0.30
2018-12-04T18:05:09.169Z,-0.40
2018-12-04T18:07:36.618Z,-0.40
2018-12-04T18:10:05.000Z,-0.40
2018-12-04T18:12:32.545Z,-0.50
2018-12-04T18:15:00.024Z,-0.70
2018-12-04T18:17:27.518Z,-0.70
2018-12-04T18:19:55.254Z,-0.80
2018-12-04T18:22:22.755Z,-0.90
2018-12-04T18:24:50.224Z,-0.90
2018-12-04T18:27:17.698Z,-1.00
2018-12-04T18:29:45.150Z,-1.00
2018-12-04T18:32:12.604Z,-1.10
2018-12-04T18:34:40.065Z,-1.10
2018-12-04T18:37:08.429Z,-1.20
2018-12-04T18:39:35.895Z,-1.10
2018-12-04T18:42:03.410Z,-1.20
2018-12-04T18:44:30.887Z,-1.20
2018-12-04T18:46:58.490Z,-1.10
2018-12-04T18:49:25.946Z,-1.10
2018-12-04T18:51:53.437Z,-1.20
2018-12-04T18:54:21.047Z,-1.20
2018-12-04T18:56:48.540Z,-1.40
2018-12-04T18:59:16.060Z,-1.50
2018-12-04T19:01:43.579Z,-1.60
2018-12-04T19:04:11.059Z,-1.70
2018-12-04T19:06:38.514Z,-1.70
2018-12-04T19:09:06.806Z,-1.50
2018-12-04T19:11:34.309Z,-1.50
2018-12-04T19:14:01.806Z,-1.40
2018-12-04T19:16:29.297Z,-1.30
2018-12-04T19:18:56.794Z,-1.30
2018-12-04T19:21:24.287Z,-1.20
2018-12-04T19:23:51.775Z,-1.20
2018-12-04T19:26:19.213Z,-1.10
2018-12-04T19:28:46.807Z,-1.10
2018-12-04T19:31:14.286Z,-0.90
2018-12-04T19:33:42.551Z,-0.90
2018-12-04T19:36:10.046Z,-0.80
2018-12-04T19:38:37.519Z,-0.80
2018-12-04T19:41:05.214Z,-0.70
2018-12-04T19:43:32.739Z,-0.70
2018-12-04T19:46:00.243Z,-0.60
2018-12-04T19:48:27.676Z,-0.60
2018-12-04T19:50:55.189Z,-0.60
2018-12-04T19:53:22.662Z,-0.70
2018-12-04T19:55:50.155Z,-0.70
2018-12-04T19:58:17.632Z,-0.60
2018-12-04T20:00:45.298Z,-0.60
2018-12-04T20:03:12.772Z,-0.60
2018-12-04T20:05:40.255Z,-0.50
2018-12-04T20:08:07.710Z,-0.50
2018-12-04T20:10:35.186Z,-0.60
2018-12-04T20:13:02.665Z,-0.60
2018-12-04T20:15:30.121Z,-0.70
2018-12-04T20:17:57.581Z,-0.60
2018-12-04T20:20:25.052Z,-0.60
2018-12-04T20:22:52.542Z,-0.70
2018-12-04T20:25:20.025Z,-0.60
2018-12-04T20:27:47.473Z,-0.60
2018-12-04T20:30:14.956Z,-0.70
2018-12-04T20:32:42.410Z,-0.70
2018-12-04T20:35:09.907Z,-0.60
2018-12-04T20:37:37.382Z,-0.70
2018-12-04T20:40:05.089Z,-0.60
2018-12-04T20:42:32.581Z,-0.60
2018-12-04T20:45:00.118Z,-0.80
2018-12-04T20:47:27.622Z,-0.90
2018-12-04T20:49:55.061Z,-1.00
2018-12-04T20:52:23.547Z,-1.00
2018-12-04T20:54:51.026Z,-1.20
2018-12-04T20:57:18.510Z,-1.20
2018-12-04T20:59:45.969Z,-1.40
2018-12-04T21:02:13.586Z,-1.40
2018-12-04T21:04:41.073Z,-1.40
2018-12-04T21:07:08.567Z,-1.50
2018-12-04T21:09:36.031Z,-1.60
2018-12-04T21:12:03.931Z,-1.70
2018-12-04T21:14:31.415Z,-1.70
2018-12-04T21:16:58.910Z,-1.70
2018-12-04T21:19:26.375Z,-1.70
2018-12-04T21:21:53.870Z,-1.60
2018-12-04T21:24:21.318Z,-1.50
2018-12-04T21:26:48.831Z,-1.70
2018-12-04T21:29:22.033Z,-1.70
2018-12-04T21:31:55.069Z,-1.80
2018-12-04T21:34:29.275Z,-1.90
2018-12-04T21:37:02.542Z,-2.00
2018-12-04T21:39:35.551Z,-2.10
2018-12-04T21:42:05.311Z,-2.10
2018-12-04T21:44:38.495Z,-2.00
2018-12-04T21:50:13.597Z,-2.20
2018-12-04T21:52:41.106Z,-2.20
2018-12-04T21:55:08.593Z,-2.10
2018-12-04T21:57:36.092Z,-2.10
2018-12-04T22:00:04.908Z,-2.20
2018-12-04T22:02:32.381Z,-2.20
2018-12-04T22:04:59.871Z,-2.30
2018-12-04T22:07:27.349Z,-2.30
2018-12-04T22:09:54.827Z,-2.30
2018-12-04T22:12:22.405Z,-2.30
2018-12-04T22:14:49.907Z,-2.20
2018-12-04T22:17:18.281Z,-2.20
2018-12-04T22:19:45.770Z,-2.20
2018-12-04T22:22:13.269Z,-2.10
2018-12-04T22:24:40.813Z,-2.10
2018-12-04T22:27:08.310Z,-2.10
2018-12-04T22:29:35.810Z,-2.20
2018-12-04T22:32:03.305Z,-2.20
2018-12-04T22:34:30.839Z,-2.20
2018-12-04T22:36:58.568Z,-2.40
2018-12-04T22:39:26.087Z,-2.40
2018-12-04T22:41:53.605Z,-2.40
2018-12-04T22:44:21.107Z,-2.40
2018-12-04T22:46:48.639Z,-2.50
2018-12-04T22:49:16.458Z,-2.60
2018-12-04T22:51:43.986Z,-2.60
2018-12-04T22:54:11.476Z,-2.50
2018-12-04T22:56:39.251Z,-2.50
2018-12-04T22:59:06.717Z,-2.50
2018-12-04T23:01:38.029Z,-2.60
2018-12-04T23:04:06.559Z,-2.70
2018-12-04T23:06:34.118Z,-2.80
2018-12-04T23:09:01.628Z,-2.70
2018-12-04T23:11:29.169Z,-2.80
2018-12-04T23:13:56.730Z,-2.70
2018-12-04T23:16:24.281Z,-2.70
2018-12-04T23:18:51.759Z,-2.70
2018-12-04T23:21:19.373Z,-2.70
2018-12-04T23:23:46.919Z,-2.70
2018-12-04T23:26:14.690Z,-2.70
2018-12-04T23:28:42.182Z,-2.60
2018-12-04T23:31:09.682Z,-2.60
2018-12-04T23:33:37.178Z,-2.60
2018-12-04T23:36:04.722Z,-2.60
2018-12-04T23:38:32.236Z,-2.60
2018-12-04T23:40:59.883Z,-2.60
2018-12-04T23:43:27.373Z,-2.70
2018-12-04T23:45:54.849Z,-2.60
2018-12-04T23:48:22.342Z,-2.60
2018-12-04T23:50:58.868Z,-2.60
2018-12-04T23:53:26.351Z,-2.60
2018-12-04T23:55:53.873Z,-2.60
2018-12-04T23:58:21.339Z,-2.60
